createdAt,value
2018-11-04T00:00:52.091Z,1016.65
2018-11-04T00:01:52.103Z,1016.63
2018-11-04T00:02:52.121Z,1016.64
2018-11-04T00:03:52.131Z,1016.64
2018-11-04T00:04:52.145Z,1016.66
2018-11-04T00:05:52.161Z,1016.64
2018-11-04T00:06:52.174Z,1016.67
2018-11-04T00:07:52.222Z,1016.63
2018-11-04T00:08:52.204Z,1016.61
2018-11-04T00:09:52.220Z,1016.61
2018-11-04T00:10:52.233Z,1016.61
2018-11-04T00:11:52.247Z,1016.60
2018-11-04T00:12:52.262Z,1016.55
2018-11-04T00:13:52.277Z,1016.50
2018-11-04T00:14:52.308Z,1016.49
2018-11-04T00:15:52.305Z,1016.54
2018-11-04T00:16:52.320Z,1016.49
2018-11-04T00:17:52.334Z,1016.47
2018-11-04T00:18:52.348Z,1016.51
2018-11-04T00:19:52.362Z,1016.52
2018-11-04T00:20:52.377Z,1016.46
2018-11-04T00:21:52.392Z,1016.40
2018-11-04T00:22:52.408Z,1016.42
2018-11-04T00:23:52.447Z,1016.42
2018-11-04T00:24:52.436Z,1016.41
2018-11-04T00:25:52.450Z,1016.43
2018-11-04T00:26:52.477Z,1016.40
2018-11-04T00:27:52.482Z,1016.36
2018-11-04T00:28:52.492Z,1016.29
2018-11-04T00:29:52.647Z,1016.34
2018-11-04T00:30:52.523Z,1016.28
2018-11-04T00:31:52.537Z,1016.28
2018-11-04T00:32:52.552Z,1016.22
2018-11-04T00:33:52.565Z,1016.25
2018-11-04T00:34:52.584Z,1016.25
2018-11-04T00:35:52.599Z,1016.15
2018-11-04T00:36:52.610Z,1016.23
2018-11-04T00:37:52.623Z,1016.23
2018-11-04T00:38:52.637Z,1016.22
2018-11-04T00:39:52.653Z,1016.21
2018-11-04T00:40:52.666Z,1016.22
2018-11-04T00:41:52.681Z,1016.22
2018-11-04T00:42:52.696Z,1016.27
2018-11-04T00:43:52.708Z,1016.23
2018-11-04T00:44:52.723Z,1016.20
2018-11-04T00:45:52.740Z,1016.18
2018-11-04T00:46:52.752Z,1016.15
2018-11-04T00:47:52.767Z,1016.11
2018-11-04T00:48:52.782Z,1016.10
2018-11-04T00:49:52.799Z,1016.06
2018-11-04T00:50:52.810Z,1016.00
2018-11-04T00:51:52.824Z,1016.04
2018-11-04T00:52:52.838Z,1016.02
2018-11-04T00:53:52.853Z,1016.02
2018-11-04T00:54:52.867Z,1016.04
2018-11-04T00:55:52.882Z,1016.01
2018-11-04T00:56:52.895Z,1016.00
2018-11-04T00:57:52.911Z,1016.03
2018-11-04T00:58:52.925Z,1016.04
2018-11-04T00:59:52.939Z,1016.02
2018-11-04T01:00:52.957Z,1015.96
2018-11-04T01:01:52.969Z,1015.98
2018-11-04T01:02:52.985Z,1015.94
2018-11-04T01:03:53.002Z,1015.93
2018-11-04T01:04:53.012Z,1015.97
2018-11-04T01:05:53.026Z,1015.93
2018-11-04T01:06:53.039Z,1015.92
2018-11-04T01:07:53.055Z,1015.92
2018-11-04T01:08:53.072Z,1015.83
2018-11-04T01:09:53.084Z,1015.82
2018-11-04T01:10:53.097Z,1015.81
2018-11-04T01:11:53.173Z,1015.83
2018-11-04T01:12:53.127Z,1015.76
2018-11-04T01:13:53.141Z,1015.79
2018-11-04T01:14:53.155Z,1015.75
2018-11-04T01:15:53.169Z,1015.73
2018-11-04T01:16:53.184Z,1015.68
2018-11-04T01:17:53.199Z,1015.69
2018-11-04T01:18:53.212Z,1015.63
2018-11-04T01:19:53.226Z,1015.61
2018-11-04T01:20:53.241Z,1015.60
2018-11-04T01:21:53.255Z,1015.63
2018-11-04T01:22:53.269Z,1015.62
2018-11-04T01:23:53.284Z,1015.64
2018-11-04T01:24:53.299Z,1015.59
2018-11-04T01:25:53.315Z,1015.53
2018-11-04T01:26:53.326Z,1015.56
2018-11-04T01:27:53.341Z,1015.56
2018-11-04T01:28:53.355Z,1015.51
2018-11-04T01:29:53.369Z,1015.47
2018-11-04T01:30:53.384Z,1015.51
2018-11-04T01:31:53.398Z,1015.51
2018-11-04T01:32:53.414Z,1015.47
2018-11-04T01:33:53.445Z,1015.48
2018-11-04T01:34:53.441Z,1015.51
2018-11-04T01:35:53.466Z,1015.45
2018-11-04T01:36:53.470Z,1015.45
2018-11-04T01:37:53.485Z,1015.42
2018-11-04T01:38:53.498Z,1015.41
2018-11-04T01:39:53.513Z,1015.42
2018-11-04T01:40:53.542Z,1015.43
2018-11-04T01:41:53.543Z,1015.43
2018-11-04T01:42:53.556Z,1015.41
2018-11-04T01:43:53.569Z,1015.44
2018-11-04T01:44:53.585Z,1015.39
2018-11-04T01:45:53.598Z,1015.38
2018-11-04T01:46:53.612Z,1015.37
2018-11-04T01:47:53.625Z,1015.37
2018-11-04T01:48:53.641Z,1015.34
2018-11-04T01:49:53.655Z,1015.39
2018-11-04T01:50:53.670Z,1015.30
2018-11-04T01:51:53.684Z,1015.29
2018-11-04T01:52:53.699Z,1015.31
2018-11-04T01:53:53.711Z,1015.30
2018-11-04T01:54:53.726Z,1015.21
2018-11-04T01:55:53.741Z,1015.26
2018-11-04T01:56:53.755Z,1015.19
2018-11-04T01:57:53.770Z,1015.21
2018-11-04T01:58:53.783Z,1015.15
2018-11-04T01:59:53.796Z,1015.18
2018-11-04T02:00:53.812Z,1015.16
2018-11-04T02:01:53.826Z,1015.15
2018-11-04T02:02:53.839Z,1015.12
2018-11-04T02:03:53.853Z,1015.14
2018-11-04T02:04:53.869Z,1015.13
2018-11-04T02:05:53.883Z,1015.10
2018-11-04T02:06:53.896Z,1015.06
2018-11-04T02:07:53.911Z,1015.05
2018-11-04T02:08:53.924Z,1015.05
2018-11-04T02:09:53.938Z,1015.00
2018-11-04T02:10:53.951Z,1014.98
2018-11-04T02:11:53.966Z,1015.01
2018-11-04T02:12:53.982Z,1014.98
2018-11-04T02:13:53.997Z,1014.96
2018-11-04T02:14:54.009Z,1014.90
2018-11-04T02:15:54.022Z,1014.90
2018-11-04T02:16:54.038Z,1014.87
2018-11-04T02:17:54.052Z,1014.83
2018-11-04T02:18:54.063Z,1014.81
2018-11-04T02:19:54.078Z,1014.79
2018-11-04T02:20:54.094Z,1014.79
2018-11-04T02:21:54.108Z,1014.86
2018-11-04T02:22:54.122Z,1014.77
2018-11-04T02:23:54.134Z,1014.79
2018-11-04T02:24:54.150Z,1014.74
2018-11-04T02:25:54.167Z,1014.69
2018-11-04T02:26:54.176Z,1014.71
2018-11-04T02:27:54.192Z,1014.68
2018-11-04T02:28:54.205Z,1014.64
2018-11-04T02:29:54.220Z,1014.63
2018-11-04T02:30:54.234Z,1014.63
2018-11-04T02:31:54.248Z,1014.61
2018-11-04T02:32:54.262Z,1014.53
2018-11-04T02:33:54.276Z,1014.57
2018-11-04T02:34:54.291Z,1014.58
2018-11-04T02:35:54.304Z,1014.53
2018-11-04T02:36:54.319Z,1014.53
2018-11-04T02:37:54.333Z,1014.56
2018-11-04T02:38:54.346Z,1014.55
2018-11-04T02:39:54.359Z,1014.52
2018-11-04T02:40:54.375Z,1014.52
2018-11-04T02:41:54.388Z,1014.54
2018-11-04T02:42:54.402Z,1014.52
2018-11-04T02:43:54.416Z,1014.53
2018-11-04T02:44:54.431Z,1014.54
2018-11-04T02:45:54.447Z,1014.52
2018-11-04T02:46:54.519Z,1014.54
2018-11-04T02:47:54.472Z,1014.51
2018-11-04T02:48:54.487Z,1014.53
2018-11-04T02:49:54.502Z,1014.50
2018-11-04T02:50:54.516Z,1014.48
2018-11-04T02:51:54.533Z,1014.46
2018-11-04T02:52:54.544Z,1014.49
2018-11-04T02:53:54.557Z,1014.44
2018-11-04T02:54:54.571Z,1014.45
2018-11-04T02:55:54.584Z,1014.40
2018-11-04T02:56:54.600Z,1014.41
2018-11-04T02:57:54.614Z,1014.40
2018-11-04T02:58:54.627Z,1014.41
2018-11-04T02:59:54.642Z,1014.42
2018-11-04T03:00:54.656Z,1014.43
2018-11-04T03:01:54.772Z,1014.40
2018-11-04T03:02:54.684Z,1014.39
2018-11-04T03:03:54.699Z,1014.39
2018-11-04T03:04:54.713Z,1014.36
2018-11-04T03:05:54.727Z,1014.32
2018-11-04T03:06:54.741Z,1014.29
2018-11-04T03:07:54.756Z,1014.27
2018-11-04T03:08:54.769Z,1014.24
2018-11-04T03:09:54.784Z,1014.27
2018-11-04T03:10:54.798Z,1014.16
2018-11-04T03:11:54.812Z,1014.18
2018-11-04T03:12:54.824Z,1014.10
2018-11-04T03:13:54.840Z,1014.11
2018-11-04T03:14:54.854Z,1014.12
2018-11-04T03:15:54.867Z,1014.08
2018-11-04T03:16:54.882Z,1014.05
2018-11-04T03:17:54.897Z,1014.09
2018-11-04T03:18:54.910Z,1014.06
2018-11-04T03:19:54.925Z,1014.07
2018-11-04T03:20:54.940Z,1014.05
2018-11-04T03:21:54.956Z,1013.99
2018-11-04T03:22:54.966Z,1014.01
2018-11-04T03:23:54.982Z,1014.01
2018-11-04T03:24:54.995Z,1013.99
2018-11-04T03:25:55.011Z,1014.01
2018-11-04T03:26:55.024Z,1013.98
2018-11-04T03:27:55.040Z,1013.97
2018-11-04T03:28:55.056Z,1013.96
2018-11-04T03:29:55.067Z,1013.97
2018-11-04T03:30:55.083Z,1013.93
2018-11-04T03:31:55.104Z,1013.93
2018-11-04T03:32:55.109Z,1013.90
2018-11-04T03:33:55.124Z,1013.94
2018-11-04T03:34:55.138Z,1013.92
2018-11-04T03:35:55.152Z,1013.88
2018-11-04T03:36:55.172Z,1013.91
2018-11-04T03:37:55.180Z,1013.85
2018-11-04T03:38:55.193Z,1013.84
2018-11-04T03:39:55.209Z,1013.84
2018-11-04T03:40:55.223Z,1013.80
2018-11-04T03:41:55.238Z,1013.78
2018-11-04T03:42:55.251Z,1013.83
2018-11-04T03:43:55.266Z,1013.86
2018-11-04T03:44:55.280Z,1013.82
2018-11-04T03:45:55.294Z,1013.87
2018-11-04T03:46:55.308Z,1013.88
2018-11-04T03:47:55.323Z,1013.95
2018-11-04T03:48:55.340Z,1013.91
2018-11-04T03:49:55.351Z,1013.96
2018-11-04T03:50:55.363Z,1013.92
2018-11-04T03:51:55.380Z,1013.93
2018-11-04T03:52:55.393Z,1013.98
2018-11-04T03:53:55.410Z,1013.94
2018-11-04T03:54:55.420Z,1013.95
2018-11-04T03:55:55.435Z,1013.93
2018-11-04T03:56:55.451Z,1013.95
2018-11-04T03:57:55.466Z,1013.94
2018-11-04T03:58:55.478Z,1013.98
2018-11-04T03:59:55.491Z,1013.97
2018-11-04T04:00:55.507Z,1013.97
2018-11-04T04:01:55.523Z,1013.97
2018-11-04T04:02:55.534Z,1013.96
2018-11-04T04:03:55.549Z,1013.97
2018-11-04T04:04:55.564Z,1013.91
2018-11-04T04:05:55.582Z,1013.92
2018-11-04T04:06:55.610Z,1013.88
2018-11-04T04:07:55.606Z,1013.90
2018-11-04T04:08:55.621Z,1013.90
2018-11-04T04:09:55.636Z,1013.87
2018-11-04T04:10:55.646Z,1013.90
2018-11-04T04:11:55.664Z,1013.91
2018-11-04T04:12:55.677Z,1013.88
2018-11-04T04:13:55.693Z,1013.87
2018-11-04T04:14:55.705Z,1013.86
2018-11-04T04:15:55.718Z,1013.86
2018-11-04T04:16:55.732Z,1013.85
2018-11-04T04:17:55.748Z,1013.86
2018-11-04T04:18:55.762Z,1013.85
2018-11-04T04:19:55.785Z,1013.87
2018-11-04T04:20:55.791Z,1013.89
2018-11-04T04:21:55.804Z,1013.89
2018-11-04T04:22:55.817Z,1013.89
2018-11-04T04:23:55.833Z,1013.91
2018-11-04T04:24:55.847Z,1013.94
2018-11-04T04:25:55.862Z,1013.91
2018-11-04T04:26:55.875Z,1013.90
2018-11-04T04:27:55.890Z,1013.93
2018-11-04T04:28:55.904Z,1013.91
2018-11-04T04:29:55.918Z,1013.90
2018-11-04T04:30:55.932Z,1013.86
2018-11-04T04:31:55.947Z,1013.89
2018-11-04T04:32:55.963Z,1013.86
2018-11-04T04:33:55.976Z,1013.81
2018-11-04T04:34:55.988Z,1013.80
2018-11-04T04:35:56.003Z,1013.78
2018-11-04T04:36:56.018Z,1013.78
2018-11-04T04:37:56.032Z,1013.73
2018-11-04T04:38:56.046Z,1013.78
2018-11-04T04:39:56.061Z,1013.74
2018-11-04T04:40:56.075Z,1013.70
2018-11-04T04:41:56.089Z,1013.68
2018-11-04T04:42:56.102Z,1013.65
2018-11-04T04:43:56.116Z,1013.64
2018-11-04T04:44:56.131Z,1013.60
2018-11-04T04:45:56.145Z,1013.58
2018-11-04T04:46:56.163Z,1013.56
2018-11-04T04:47:56.174Z,1013.60
2018-11-04T04:48:56.187Z,1013.52
2018-11-04T04:49:56.202Z,1013.55
2018-11-04T04:50:56.221Z,1013.51
2018-11-04T04:51:56.232Z,1013.56
2018-11-04T04:52:56.244Z,1013.54
2018-11-04T04:53:56.258Z,1013.54
2018-11-04T04:54:56.272Z,1013.53
2018-11-04T04:55:56.287Z,1013.54
2018-11-04T04:56:56.301Z,1013.57
2018-11-04T04:57:56.315Z,1013.55
2018-11-04T04:58:56.329Z,1013.54
2018-11-04T04:59:56.343Z,1013.57
2018-11-04T05:00:56.359Z,1013.58
2018-11-04T05:01:56.372Z,1013.61
2018-11-04T05:02:56.386Z,1013.60
2018-11-04T05:03:56.401Z,1013.56
2018-11-04T05:04:56.415Z,1013.56
2018-11-04T05:05:56.430Z,1013.56
2018-11-04T05:06:56.442Z,1013.57
2018-11-04T05:07:56.457Z,1013.51
2018-11-04T05:08:56.471Z,1013.52
2018-11-04T05:09:56.487Z,1013.51
2018-11-04T05:10:56.500Z,1013.48
2018-11-04T05:11:56.513Z,1013.44
2018-11-04T05:12:56.529Z,1013.41
2018-11-04T05:13:56.543Z,1013.44
2018-11-04T05:14:56.558Z,1013.42
2018-11-04T05:15:56.574Z,1013.42
2018-11-04T05:16:56.587Z,1013.41
2018-11-04T05:17:56.601Z,1013.42
2018-11-04T05:18:56.613Z,1013.42
2018-11-04T05:19:56.628Z,1013.44
2018-11-04T05:20:56.644Z,1013.44
2018-11-04T05:21:56.657Z,1013.45
2018-11-04T05:22:56.672Z,1013.47
2018-11-04T05:23:56.685Z,1013.45
2018-11-04T05:24:59.104Z,1013.39
2018-11-04T05:25:56.715Z,1013.43
2018-11-04T05:26:56.728Z,1013.41
2018-11-04T05:27:56.744Z,1013.38
2018-11-04T05:28:56.757Z,1013.36
2018-11-04T05:29:56.773Z,1013.39
2018-11-04T05:30:56.789Z,1013.40
2018-11-04T05:31:56.800Z,1013.44
2018-11-04T05:32:56.815Z,1013.42
2018-11-04T05:33:56.830Z,1013.46
2018-11-04T05:34:56.845Z,1013.45
2018-11-04T05:35:56.857Z,1013.46
2018-11-04T05:36:56.871Z,1013.45
2018-11-04T05:37:56.887Z,1013.44
2018-11-04T05:38:56.905Z,1013.48
2018-11-04T05:39:56.917Z,1013.47
2018-11-04T05:40:56.929Z,1013.47
2018-11-04T05:41:56.948Z,1013.46
2018-11-04T05:42:56.962Z,1013.43
2018-11-04T05:43:56.972Z,1013.44
2018-11-04T05:44:56.988Z,1013.39
2018-11-04T05:45:57.001Z,1013.40
2018-11-04T05:46:57.017Z,1013.39
2018-11-04T05:47:57.030Z,1013.43
2018-11-04T05:48:57.045Z,1013.45
2018-11-04T05:49:57.058Z,1013.39
2018-11-04T05:50:57.073Z,1013.41
2018-11-04T05:51:57.088Z,1013.43
2018-11-04T05:52:57.102Z,1013.37
2018-11-04T05:53:57.116Z,1013.36
2018-11-04T05:54:57.137Z,1013.34
2018-11-04T05:55:57.145Z,1013.37
2018-11-04T05:56:57.160Z,1013.32
2018-11-04T05:57:57.174Z,1013.35
2018-11-04T05:58:57.187Z,1013.37
2018-11-04T05:59:57.203Z,1013.38
2018-11-04T06:00:57.216Z,1013.35
2018-11-04T06:01:57.232Z,1013.34
2018-11-04T06:02:57.246Z,1013.31
2018-11-04T06:03:57.261Z,1013.32
2018-11-04T06:04:57.275Z,1013.36
2018-11-04T06:05:57.291Z,1013.36
2018-11-04T06:06:57.304Z,1013.35
2018-11-04T06:07:57.319Z,1013.32
2018-11-04T06:08:57.332Z,1013.32
2018-11-04T06:09:57.351Z,1013.30
2018-11-04T06:10:57.360Z,1013.33
2018-11-04T06:11:57.376Z,1013.36
2018-11-04T06:12:57.390Z,1013.40
2018-11-04T06:13:57.405Z,1013.32
2018-11-04T06:14:57.419Z,1013.36
2018-11-04T06:15:57.434Z,1013.35
2018-11-04T06:16:57.449Z,1013.37
2018-11-04T06:17:57.464Z,1013.31
2018-11-04T06:18:57.478Z,1013.32
2018-11-04T06:19:57.492Z,1013.31
2018-11-04T06:20:57.507Z,1013.30
2018-11-04T06:21:57.520Z,1013.32
2018-11-04T06:22:57.537Z,1013.28
2018-11-04T06:23:57.549Z,1013.32
2018-11-04T06:24:57.564Z,1013.30
2018-11-04T06:25:57.580Z,1013.28
2018-11-04T06:26:57.592Z,1013.33
2018-11-04T06:27:57.608Z,1013.33
2018-11-04T06:28:57.621Z,1013.33
2018-11-04T06:29:57.636Z,1013.28
2018-11-04T06:30:57.650Z,1013.28
2018-11-04T06:31:57.665Z,1013.29
2018-11-04T06:32:57.728Z,1013.26
2018-11-04T06:33:57.694Z,1013.29
2018-11-04T06:34:57.708Z,1013.26
2018-11-04T06:35:57.722Z,1013.21
2018-11-04T06:36:57.739Z,1013.20
2018-11-04T06:37:57.752Z,1013.19
2018-11-04T06:38:57.766Z,1013.18
2018-11-04T06:39:57.780Z,1013.20
2018-11-04T06:40:57.836Z,1013.18
2018-11-04T06:41:57.811Z,1013.22
2018-11-04T06:42:57.823Z,1013.23
2018-11-04T06:43:57.839Z,1013.24
2018-11-04T06:44:57.853Z,1013.21
2018-11-04T06:45:57.867Z,1013.22
2018-11-04T06:46:57.898Z,1013.25
2018-11-04T06:47:57.897Z,1013.29
2018-11-04T06:48:57.911Z,1013.29
2018-11-04T06:49:57.926Z,1013.33
2018-11-04T06:50:57.941Z,1013.31
2018-11-04T06:51:57.957Z,1013.32
2018-11-04T06:52:57.970Z,1013.33
2018-11-04T06:53:57.985Z,1013.37
2018-11-04T06:54:57.998Z,1013.37
2018-11-04T06:55:58.012Z,1013.32
2018-11-04T06:56:58.028Z,1013.33
2018-11-04T06:57:58.043Z,1013.36
2018-11-04T06:58:58.057Z,1013.35
2018-11-04T06:59:58.174Z,1013.33
2018-11-04T07:00:58.086Z,1013.37
2018-11-04T07:01:58.102Z,1013.37
2018-11-04T07:02:58.115Z,1013.40
2018-11-04T07:03:58.129Z,1013.33
2018-11-04T07:04:58.145Z,1013.32
2018-11-04T07:05:58.160Z,1013.29
2018-11-04T07:06:58.175Z,1013.31
2018-11-04T07:07:58.192Z,1013.26
2018-11-04T07:08:58.252Z,1013.28
2018-11-04T07:09:58.221Z,1013.25
2018-11-04T07:10:58.233Z,1013.26
2018-11-04T07:11:58.248Z,1013.27
2018-11-04T07:12:58.278Z,1013.22
2018-11-04T07:13:58.278Z,1013.24
2018-11-04T07:14:58.292Z,1013.19
2018-11-04T07:15:58.306Z,1013.19
2018-11-04T07:16:58.322Z,1013.19
2018-11-04T07:17:58.336Z,1013.18
2018-11-04T07:18:58.350Z,1013.22
2018-11-04T07:19:58.427Z,1013.19
2018-11-04T07:20:58.381Z,1013.19
2018-11-04T07:21:58.396Z,1013.20
2018-11-04T07:22:58.410Z,1013.23
2018-11-04T07:23:58.425Z,1013.18
2018-11-04T07:24:58.440Z,1013.20
2018-11-04T07:25:58.455Z,1013.22
2018-11-04T07:26:58.469Z,1013.24
2018-11-04T07:27:58.485Z,1013.19
2018-11-04T07:28:58.499Z,1013.19
2018-11-04T07:29:58.515Z,1013.18
2018-11-04T07:30:58.528Z,1013.19
2018-11-04T07:31:58.597Z,1013.19
2018-11-04T07:32:58.557Z,1013.18
2018-11-04T07:33:58.574Z,1013.22
2018-11-04T07:34:58.588Z,1013.23
2018-11-04T07:35:58.604Z,1013.26
2018-11-04T07:36:58.624Z,1013.21
2018-11-04T07:37:58.633Z,1013.25
2018-11-04T07:38:58.647Z,1013.22
2018-11-04T07:39:58.666Z,1013.23
2018-11-04T07:40:58.680Z,1013.23
2018-11-04T07:41:58.693Z,1013.22
2018-11-04T07:42:58.705Z,1013.19
2018-11-04T07:43:58.722Z,1013.11
2018-11-04T07:44:58.737Z,1013.17
2018-11-04T07:45:58.753Z,1013.14
2018-11-04T07:46:58.767Z,1013.13
2018-11-04T07:47:58.783Z,1013.16
2018-11-04T07:48:58.797Z,1013.16
2018-11-04T07:49:58.813Z,1013.16
2018-11-04T07:50:58.828Z,1013.15
2018-11-04T07:51:58.841Z,1013.14
2018-11-04T07:52:58.857Z,1013.17
2018-11-04T07:53:58.873Z,1013.16
2018-11-04T07:54:58.887Z,1013.14
2018-11-04T07:55:58.902Z,1013.15
2018-11-04T07:56:59.003Z,1013.09
2018-11-04T07:57:58.932Z,1013.16
2018-11-04T07:58:58.948Z,1013.09
2018-11-04T07:59:58.963Z,1013.07
2018-11-04T08:00:59.034Z,1013.13
2018-11-04T08:01:58.993Z,1013.08
2018-11-04T08:02:59.008Z,1013.10
2018-11-04T08:03:59.062Z,1013.04
2018-11-04T08:04:59.039Z,1013.07
2018-11-04T08:05:59.056Z,1013.08
2018-11-04T08:06:59.070Z,1013.05
2018-11-04T08:07:59.084Z,1013.04
2018-11-04T08:08:59.099Z,1013.09
2018-11-04T08:09:59.115Z,1013.03
2018-11-04T08:10:59.129Z,1013.03
2018-11-04T08:11:59.144Z,1012.98
2018-11-04T08:12:59.163Z,1013.03
2018-11-04T08:13:59.176Z,1012.98
2018-11-04T08:14:59.190Z,1012.97
2018-11-04T08:15:59.209Z,1012.97
2018-11-04T08:16:59.220Z,1012.96
2018-11-04T08:17:59.238Z,1012.93
2018-11-04T08:18:59.251Z,1012.92
2018-11-04T08:19:59.267Z,1012.91
2018-11-04T08:20:59.282Z,1012.93
2018-11-04T08:21:59.297Z,1012.97
2018-11-04T08:22:59.313Z,1012.94
2018-11-04T08:23:59.328Z,1012.89
2018-11-04T08:24:59.344Z,1012.98
2018-11-04T08:25:59.360Z,1012.87
2018-11-04T08:26:59.374Z,1012.87
2018-11-04T08:27:59.390Z,1012.91
2018-11-04T08:28:59.404Z,1012.86
2018-11-04T08:29:59.422Z,1012.86
2018-11-04T08:30:59.437Z,1012.88
2018-11-04T08:31:59.451Z,1012.88
2018-11-04T08:32:59.467Z,1012.92
2018-11-04T08:33:59.485Z,1012.85
2018-11-04T08:34:59.496Z,1012.87
2018-11-04T08:35:59.513Z,1012.84
2018-11-04T08:36:59.528Z,1012.82
2018-11-04T08:37:59.545Z,1012.79
2018-11-04T08:38:59.559Z,1012.76
2018-11-04T08:39:59.653Z,1012.77
2018-11-04T08:40:59.592Z,1012.71
2018-11-04T08:41:59.607Z,1012.74
2018-11-04T08:42:59.622Z,1012.72
2018-11-04T08:43:59.640Z,1012.69
2018-11-04T08:44:59.653Z,1012.65
2018-11-04T08:45:59.669Z,1012.64
2018-11-04T08:46:59.683Z,1012.66
2018-11-04T08:47:59.700Z,1012.68
2018-11-04T08:48:59.715Z,1012.73
2018-11-04T08:49:59.731Z,1012.69
2018-11-04T08:50:59.746Z,1012.69
2018-11-04T08:51:59.762Z,1012.70
2018-11-04T08:52:59.778Z,1012.72
2018-11-04T08:53:59.794Z,1012.76
2018-11-04T08:54:59.808Z,1012.74
2018-11-04T08:55:59.824Z,1012.75
2018-11-04T08:56:59.843Z,1012.72
2018-11-04T08:57:59.861Z,1012.66
2018-11-04T08:58:59.872Z,1012.70
2018-11-04T08:59:59.952Z,1012.69
2018-11-04T09:00:59.904Z,1012.67
2018-11-04T09:01:59.920Z,1012.65
2018-11-04T09:02:59.936Z,1012.63
2018-11-04T09:03:59.953Z,1012.65
2018-11-04T09:04:59.967Z,1012.62
2018-11-04T09:05:59.984Z,1012.60
2018-11-04T09:06:59.998Z,1012.61
2018-11-04T09:08:00.018Z,1012.66
2018-11-04T09:09:00.032Z,1012.64
2018-11-04T09:10:00.049Z,1012.64
2018-11-04T09:11:00.063Z,1012.61
2018-11-04T09:12:00.079Z,1012.58
2018-11-04T09:13:00.096Z,1012.58
2018-11-04T09:14:00.120Z,1012.59
2018-11-04T09:15:00.129Z,1012.57
2018-11-04T09:16:00.144Z,1012.59
2018-11-04T09:17:00.160Z,1012.55
2018-11-04T09:18:00.181Z,1012.54
2018-11-04T09:19:00.192Z,1012.53
2018-11-04T09:20:00.208Z,1012.53
2018-11-04T09:21:00.227Z,1012.48
2018-11-04T09:22:00.363Z,1012.49
2018-11-04T09:23:00.256Z,1012.47
2018-11-04T09:24:00.275Z,1012.48
2018-11-04T09:25:00.290Z,1012.45
2018-11-04T09:26:00.306Z,1012.44
2018-11-04T09:27:00.325Z,1012.44
2018-11-04T09:28:00.339Z,1012.45
2018-11-04T09:29:00.370Z,1012.48
2018-11-04T09:30:00.372Z,1012.48
2018-11-04T09:31:00.387Z,1012.50
2018-11-04T09:32:00.403Z,1012.51
2018-11-04T09:33:00.419Z,1012.50
2018-11-04T09:34:00.437Z,1012.48
2018-11-04T09:35:00.556Z,1012.45
2018-11-04T09:36:00.552Z,1012.46
2018-11-04T09:37:00.486Z,1012.43
2018-11-04T09:38:00.502Z,1012.41
2018-11-04T09:39:00.518Z,1012.38
2018-11-04T09:40:00.535Z,1012.39
2018-11-04T09:41:00.551Z,1012.42
2018-11-04T09:42:00.568Z,1012.37
2018-11-04T09:43:00.583Z,1012.39
2018-11-04T09:44:00.600Z,1012.39
2018-11-04T09:45:00.617Z,1012.42
2018-11-04T09:46:00.685Z,1012.44
2018-11-04T09:47:00.649Z,1012.42
2018-11-04T09:48:00.668Z,1012.41
2018-11-04T09:49:00.684Z,1012.39
2018-11-04T09:50:00.746Z,1012.41
2018-11-04T09:51:00.717Z,1012.39
2018-11-04T09:52:00.734Z,1012.38
2018-11-04T09:53:00.750Z,1012.36
2018-11-04T09:54:00.765Z,1012.36
2018-11-04T09:55:00.781Z,1012.38
2018-11-04T09:56:00.800Z,1012.37
2018-11-04T09:57:00.816Z,1012.35
2018-11-04T09:58:00.833Z,1012.36
2018-11-04T09:59:00.850Z,1012.37
2018-11-04T10:00:00.867Z,1012.36
2018-11-04T10:01:00.884Z,1012.39
2018-11-04T10:02:00.900Z,1012.35
2018-11-04T10:03:00.917Z,1012.37
2018-11-04T10:04:00.933Z,1012.38
2018-11-04T10:05:00.950Z,1012.44
2018-11-04T10:06:00.967Z,1012.37
2018-11-04T10:07:01.015Z,1012.36
2018-11-04T10:08:01.000Z,1012.38
2018-11-04T10:09:01.016Z,1012.40
2018-11-04T10:10:01.034Z,1012.38
2018-11-04T10:11:01.050Z,1012.36
2018-11-04T10:12:01.068Z,1012.38
2018-11-04T10:13:01.084Z,1012.33
2018-11-04T10:14:01.104Z,1012.39
2018-11-04T10:15:01.119Z,1012.35
2018-11-04T10:16:01.157Z,1012.36
2018-11-04T10:17:01.158Z,1012.34
2018-11-04T10:18:01.169Z,1012.34
2018-11-04T10:19:01.340Z,1012.36
2018-11-04T10:20:01.542Z,1012.38
2018-11-04T10:21:01.711Z,1012.42
2018-11-04T10:22:01.239Z,1012.42
2018-11-04T10:23:01.260Z,1012.42
2018-11-04T10:24:01.333Z,1012.43
2018-11-04T10:25:01.423Z,1012.42
2018-11-04T10:26:01.307Z,1012.38
2018-11-04T10:27:01.324Z,1012.40
2018-11-04T10:28:01.341Z,1012.33
2018-11-04T10:29:01.358Z,1012.35
2018-11-04T10:30:01.447Z,1012.33
2018-11-04T10:31:01.393Z,1012.34
2018-11-04T10:32:01.412Z,1012.34
2018-11-04T10:33:01.427Z,1012.31
2018-11-04T10:34:01.444Z,1012.26
2018-11-04T10:35:01.462Z,1012.27
2018-11-04T10:36:01.481Z,1012.29
2018-11-04T10:37:01.504Z,1012.26
2018-11-04T10:38:01.514Z,1012.24
2018-11-04T10:39:01.533Z,1012.23
2018-11-04T10:40:01.552Z,1012.24
2018-11-04T10:41:01.569Z,1012.19
2018-11-04T10:42:01.583Z,1012.19
2018-11-04T10:43:01.600Z,1012.16
2018-11-04T10:44:01.617Z,1012.15
2018-11-04T10:45:01.637Z,1012.12
2018-11-04T10:46:01.652Z,1012.13
2018-11-04T10:47:01.669Z,1012.11
2018-11-04T10:48:01.689Z,1012.10
2018-11-04T10:49:01.704Z,1012.10
2018-11-04T10:50:01.900Z,1012.13
2018-11-04T10:51:01.738Z,1012.14
2018-11-04T10:52:01.775Z,1012.07
2018-11-04T10:53:01.772Z,1012.14
2018-11-04T10:54:01.792Z,1012.11
2018-11-04T10:55:01.814Z,1012.10
2018-11-04T10:56:01.825Z,1012.07
2018-11-04T10:57:01.847Z,1012.06
2018-11-04T10:58:01.861Z,1012.08
2018-11-04T10:59:01.877Z,1012.03
2018-11-04T11:00:01.898Z,1012.02
2018-11-04T11:01:01.914Z,1012.04
2018-11-04T11:02:01.936Z,1012.01
2018-11-04T11:03:01.949Z,1011.96
2018-11-04T11:04:01.968Z,1011.97
2018-11-04T11:05:01.985Z,1011.91
2018-11-04T11:06:02.003Z,1011.88
2018-11-04T11:07:02.022Z,1011.83
2018-11-04T11:08:02.037Z,1011.80
2018-11-04T11:09:02.055Z,1011.78
2018-11-04T11:10:02.073Z,1011.78
2018-11-04T11:11:02.134Z,1011.75
2018-11-04T11:12:02.106Z,1011.78
2018-11-04T11:13:02.130Z,1011.73
2018-11-04T11:14:02.144Z,1011.71
2018-11-04T11:15:02.159Z,1011.65
2018-11-04T11:16:02.178Z,1011.68
2018-11-04T11:17:02.194Z,1011.69
2018-11-04T11:18:02.217Z,1011.67
2018-11-04T11:19:02.228Z,1011.62
2018-11-04T11:20:02.297Z,1011.64
2018-11-04T11:21:02.265Z,1011.67
2018-11-04T11:22:02.286Z,1011.59
2018-11-04T11:23:02.383Z,1011.58
2018-11-04T11:24:02.717Z,1011.56
2018-11-04T11:25:02.334Z,1011.57
2018-11-04T11:26:02.353Z,1011.57
2018-11-04T11:27:02.370Z,1011.56
2018-11-04T11:28:02.387Z,1011.59
2018-11-04T11:29:02.405Z,1011.56
2018-11-04T11:30:02.439Z,1011.57
2018-11-04T11:31:02.440Z,1011.54
2018-11-04T11:32:02.458Z,1011.51
2018-11-04T11:33:02.478Z,1011.47
2018-11-04T11:34:02.494Z,1011.49
2018-11-04T11:35:02.512Z,1011.51
2018-11-04T11:36:02.529Z,1011.47
2018-11-04T11:37:02.554Z,1011.50
2018-11-04T11:38:02.659Z,1011.46
2018-11-04T11:39:02.582Z,1011.45
2018-11-04T11:40:02.604Z,1011.38
2018-11-04T11:41:02.621Z,1011.36
2018-11-04T11:42:02.638Z,1011.36
2018-11-04T11:43:02.652Z,1011.32
2018-11-04T11:44:02.671Z,1011.29
2018-11-04T11:45:02.742Z,1011.34
2018-11-04T11:46:02.707Z,1011.32
2018-11-04T11:47:02.724Z,1011.31
2018-11-04T11:48:02.741Z,1011.26
2018-11-04T11:49:02.759Z,1011.27
2018-11-04T11:50:02.781Z,1011.19
2018-11-04T11:51:02.795Z,1011.20
2018-11-04T11:52:02.814Z,1011.18
2018-11-04T11:53:02.831Z,1011.19
2018-11-04T11:54:02.847Z,1011.19
2018-11-04T11:55:02.864Z,1011.18
2018-11-04T11:56:02.883Z,1011.17
2018-11-04T11:57:02.903Z,1011.16
2018-11-04T11:58:02.919Z,1011.13
2018-11-04T11:59:02.960Z,1011.12
2018-11-04T12:00:02.957Z,1011.09
2018-11-04T12:01:02.973Z,1011.08
2018-11-04T12:02:03.050Z,1011.08
2018-11-04T12:03:03.008Z,1011.08
2018-11-04T12:04:03.025Z,1011.05
2018-11-04T12:05:03.045Z,1011.04
2018-11-04T12:06:03.063Z,1011.09